Ravenswood, Illinois
Current Conditions -  °F | °C
As of 8:51 PM on Tuesday 25 Nov 2014 (Local Time) from KORD Reporting Station
Scattered Clouds Scattered Clouds  
Wind Chill: 11°   Ceiling: Unl
Heat Index: 18°   Visibility: 8mi
Dew Point: 14°   Wind: 5mph
Humidity: 84%   Direction: 190°S
Pressure: 30.18"   Gusts: NA
Location:  41.9735°N, 87.7018°W
Report Text: KORD 260251Z 19004KT 8SM SCT018 M08/M10 A3018 RMK AO2 SLP232 T10781100 53006
Loading
Personal Weather Stations






























Interactive Weather Map New forecast layout! Learn more

10-Day Weather Forecast

Advertisements
Track Severe Weather on mobile